Terminal Aerodrome Forecast
Issued by NWS

Home | Current Version | Previous Version | Text Only | Print | Product List | Glossary On
Versions: 1 2 3 4 5 6 7 8 9 10 11 12 13 14 15 16 17
000
FTUS46 KSEW 100500
TAFCLM
TAF
KCLM 100531Z 1006/1106 29004KT P6SM SKC
     FM101000 30006KT P6SM SCT008
     FM101700 35004KT P6SM SKC=

USA.gov is the U.S. government's official web portal to all federal, state and local government web resources and services.